createdAt,value
2022-08-21T00:02:04.071Z,18.01
2022-08-21T00:04:31.579Z,18.02
2022-08-21T00:06:59.608Z,17.98
2022-08-21T00:09:26.646Z,17.94
2022-08-21T00:11:54.334Z,17.89
2022-08-21T00:14:21.127Z,17.89
2022-08-21T00:16:47.853Z,18.04
2022-08-21T00:19:14.432Z,17.96
2022-08-21T00:21:41.182Z,17.99
2022-08-21T00:24:11.707Z,17.88
2022-08-21T00:26:38.311Z,17.81
2022-08-21T00:29:05.274Z,17.67
2022-08-21T00:31:31.910Z,17.74
2022-08-21T00:34:00.706Z,17.82
2022-08-21T00:36:28.412Z,17.83
2022-08-21T00:38:55.017Z,17.83
2022-08-21T00:41:37.816Z,17.79
2022-08-21T00:44:08.950Z,17.63
2022-08-21T00:46:36.567Z,17.73
2022-08-21T00:49:04.006Z,17.77
2022-08-21T00:51:39.082Z,17.69
2022-08-21T00:54:14.059Z,17.68
2022-08-21T00:56:47.626Z,17.58
2022-08-21T00:59:15.618Z,17.61
2022-08-21T01:01:42.207Z,17.62
2022-08-21T01:04:08.839Z,17.74
2022-08-21T01:06:36.178Z,17.71
2022-08-21T01:09:03.359Z,17.64
2022-08-21T01:11:30.094Z,17.48
2022-08-21T01:13:56.863Z,17.44
2022-08-21T01:16:23.888Z,17.53
2022-08-21T01:18:51.997Z,17.52
2022-08-21T01:21:28.754Z,17.43
2022-08-21T01:23:57.010Z,17.55
2022-08-21T01:26:33.642Z,17.53
2022-08-21T01:29:08.634Z,17.60
2022-08-21T01:31:35.338Z,17.52
2022-08-21T01:34:02.337Z,17.50
2022-08-21T01:36:29.479Z,17.41
2022-08-21T01:38:57.205Z,17.40
2022-08-21T01:41:23.938Z,17.47
2022-08-21T01:43:50.827Z,17.44
2022-08-21T01:46:18.607Z,17.40
2022-08-21T01:48:45.437Z,17.38
2022-08-21T01:51:12.795Z,17.44
2022-08-21T01:53:40.132Z,17.39
2022-08-21T01:56:12.205Z,17.32
2022-08-21T01:58:40.754Z,17.21
2022-08-21T02:01:07.944Z,17.11
2022-08-21T02:03:35.532Z,16.98
2022-08-21T02:06:04.702Z,17.06
2022-08-21T02:08:31.709Z,17.01
2022-08-21T02:10:58.324Z,17.10
2022-08-21T02:13:25.469Z,17.11
2022-08-21T02:15:52.043Z,17.02
2022-08-21T02:18:19.379Z,17.05
2022-08-21T02:20:55.239Z,16.92
2022-08-21T02:23:26.473Z,16.81
2022-08-21T02:25:58.806Z,16.83
2022-08-21T02:28:25.458Z,16.86
2022-08-21T02:30:56.003Z,16.87
2022-08-21T02:33:22.962Z,16.76
2022-08-21T02:35:49.897Z,16.82
2022-08-21T02:38:19.836Z,16.72
2022-08-21T02:40:50.950Z,16.82
2022-08-21T02:43:19.650Z,16.79
2022-08-21T02:45:47.634Z,16.83
2022-08-21T02:48:17.834Z,16.93
2022-08-21T02:50:49.330Z,16.70
2022-08-21T02:53:17.707Z,16.73
2022-08-21T02:55:49.903Z,16.94
2022-08-21T02:58:23.433Z,16.84
2022-08-21T03:00:50.952Z,16.89
2022-08-21T03:03:18.183Z,16.92
2022-08-21T03:05:45.448Z,16.72
2022-08-21T03:08:14.345Z,16.67
2022-08-21T03:10:45.067Z,16.86
2022-08-21T03:13:12.276Z,16.67
2022-08-21T03:15:41.176Z,16.75
2022-08-21T03:18:12.465Z,16.84
2022-08-21T03:20:42.329Z,16.93
2022-08-21T03:23:12.717Z,17.06
2022-08-21T03:25:41.630Z,17.10
2022-08-21T03:28:13.286Z,17.15
2022-08-21T03:30:42.437Z,17.13
2022-08-21T03:33:09.101Z,17.09
2022-08-21T03:35:39.012Z,17.12
2022-08-21T03:38:05.712Z,17.21
2022-08-21T03:40:32.710Z,17.24
2022-08-21T03:42:59.946Z,17.19
2022-08-21T03:45:26.780Z,17.05
2022-08-21T03:48:02.743Z,16.75
2022-08-21T03:50:32.717Z,16.72
2022-08-21T03:53:02.121Z,17.06
2022-08-21T03:55:29.228Z,17.11
2022-08-21T03:57:56.857Z,17.17
2022-08-21T04:00:24.575Z,17.09
2022-08-21T04:02:51.542Z,17.09
2022-08-21T04:05:28.440Z,17.14
2022-08-21T04:08:00.439Z,17.00
2022-08-21T04:10:29.249Z,17.14
2022-08-21T04:12:56.813Z,17.11
2022-08-21T04:15:25.867Z,16.98
2022-08-21T04:17:53.240Z,17.19
2022-08-21T04:20:22.533Z,17.23
2022-08-21T04:22:51.687Z,17.21
2022-08-21T04:25:21.756Z,17.17
2022-08-21T04:27:48.445Z,17.09
2022-08-21T04:30:16.302Z,16.90
2022-08-21T04:32:45.068Z,17.02
2022-08-21T04:35:12.651Z,17.13
2022-08-21T04:37:42.170Z,17.18
2022-08-21T04:40:13.739Z,17.19
2022-08-21T04:42:45.778Z,17.08
2022-08-21T04:45:23.069Z,17.11
2022-08-21T04:47:54.006Z,17.18
2022-08-21T04:50:25.891Z,17.18
2022-08-21T04:52:53.093Z,17.18
2022-08-21T04:55:20.892Z,17.11
2022-08-21T04:57:48.442Z,17.16
2022-08-21T05:00:19.813Z,17.10
2022-08-21T05:02:48.742Z,17.16
2022-08-21T05:05:16.714Z,17.28
2022-08-21T05:07:45.115Z,17.37
2022-08-21T05:10:12.590Z,17.45
2022-08-21T05:12:43.022Z,17.49
2022-08-21T05:15:13.616Z,17.42
2022-08-21T05:17:42.082Z,17.51
2022-08-21T05:20:10.692Z,17.46
2022-08-21T05:22:37.651Z,17.47
2022-08-21T05:25:10.174Z,17.42
2022-08-21T05:27:39.626Z,17.53
2022-08-21T05:30:10.311Z,17.43
2022-08-21T05:32:37.834Z,17.47
2022-08-21T05:35:08.778Z,17.40
2022-08-21T05:37:36.498Z,17.36
2022-08-21T05:40:22.566Z,17.53
2022-08-21T05:42:56.318Z,17.65
2022-08-21T05:45:41.280Z,17.62
2022-08-21T05:48:18.197Z,17.71
2022-08-21T05:50:45.980Z,17.82
2022-08-21T05:53:13.469Z,17.79
2022-08-21T05:55:45.818Z,17.79
2022-08-21T05:58:17.061Z,17.83
2022-08-21T06:00:44.423Z,17.90
2022-08-21T06:03:21.971Z,17.82
2022-08-21T06:05:48.868Z,17.78
2022-08-21T06:08:17.302Z,17.90
2022-08-21T06:10:44.745Z,17.86
2022-08-21T06:13:11.891Z,17.98
2022-08-21T06:15:39.127Z,18.08
2022-08-21T06:18:06.384Z,18.08
2022-08-21T06:20:33.393Z,18.08
2022-08-21T06:23:00.305Z,18.09
2022-08-21T06:25:27.086Z,18.17
2022-08-21T06:27:53.786Z,18.10
2022-08-21T06:30:20.956Z,18.21
2022-08-21T06:32:47.582Z,18.04
2022-08-21T06:35:14.177Z,18.17
2022-08-21T06:37:40.801Z,18.08
2022-08-21T06:40:12.491Z,18.25
2022-08-21T06:42:41.279Z,18.14
2022-08-21T06:45:08.430Z,18.24
2022-08-21T06:47:35.361Z,18.32
2022-08-21T06:50:02.064Z,18.28
2022-08-21T06:52:28.833Z,18.30
2022-08-21T06:54:55.449Z,18.16
2022-08-21T06:57:22.855Z,18.34
2022-08-21T06:59:49.475Z,18.39
2022-08-21T07:02:16.056Z,18.45
2022-08-21T07:04:42.666Z,18.47
2022-08-21T07:07:09.249Z,18.51
2022-08-21T07:09:36.047Z,18.54
2022-08-21T07:12:03.549Z,18.48
2022-08-21T07:14:30.215Z,18.47
2022-08-21T07:16:56.817Z,18.62
2022-08-21T07:19:23.705Z,18.56
2022-08-21T07:21:50.314Z,18.68
2022-08-21T07:24:17.012Z,18.47
2022-08-21T07:26:43.687Z,18.68
2022-08-21T07:29:12.361Z,18.59
2022-08-21T07:31:39.420Z,18.69
2022-08-21T07:34:06.010Z,18.70
2022-08-21T07:36:33.292Z,18.76
2022-08-21T07:39:01.986Z,18.72
2022-08-21T07:41:30.411Z,18.83
2022-08-21T07:43:58.386Z,18.92
2022-08-21T07:46:26.584Z,18.85
2022-08-21T07:48:54.020Z,18.85
2022-08-21T07:51:25.005Z,18.89
2022-08-21T07:53:53.676Z,18.66
2022-08-21T07:56:21.081Z,18.86
2022-08-21T07:58:48.214Z,18.84
2022-08-21T08:01:15.082Z,18.86
2022-08-21T08:03:42.071Z,18.80
2022-08-21T08:06:13.230Z,18.91
2022-08-21T08:08:42.528Z,19.02
2022-08-21T08:11:16.015Z,19.00
2022-08-21T08:13:45.875Z,19.08
2022-08-21T08:16:12.811Z,19.10
2022-08-21T08:18:39.433Z,19.09
2022-08-21T08:21:06.811Z,19.18
2022-08-21T08:23:33.634Z,19.23
2022-08-21T08:26:00.919Z,19.10
2022-08-21T08:28:28.261Z,19.00
2022-08-21T08:30:55.446Z,19.05
2022-08-21T08:33:22.167Z,18.70
2022-08-21T08:35:51.000Z,18.92
2022-08-21T08:38:21.407Z,19.03
2022-08-21T08:41:01.028Z,19.03
2022-08-21T08:43:30.941Z,19.07
2022-08-21T08:46:02.434Z,19.17
2022-08-21T08:48:34.902Z,19.00
2022-08-21T08:51:03.837Z,19.24
2022-08-21T08:53:39.247Z,19.24
2022-08-21T08:56:07.008Z,19.25
2022-08-21T08:58:38.963Z,19.22
2022-08-21T09:01:15.332Z,19.27
2022-08-21T09:03:42.178Z,19.44
2022-08-21T09:06:30.168Z,19.60
2022-08-21T09:09:27.955Z,19.42
2022-08-21T09:12:23.611Z,19.44
2022-08-21T09:15:08.082Z,19.36
2022-08-21T09:17:41.121Z,19.51
2022-08-21T09:20:28.563Z,19.65
2022-08-21T09:23:29.366Z,19.84
2022-08-21T09:26:03.931Z,20.06
2022-08-21T09:28:37.344Z,20.17
2022-08-21T09:31:08.041Z,20.28
2022-08-21T09:33:35.592Z,20.32
2022-08-21T09:36:02.303Z,20.37
2022-08-21T09:38:38.214Z,20.49
2022-08-21T09:41:11.204Z,20.60
2022-08-21T09:43:39.489Z,20.65
2022-08-21T09:46:13.109Z,20.75
2022-08-21T09:48:48.271Z,21.34
2022-08-21T09:51:28.201Z,21.49
2022-08-21T09:54:07.139Z,21.74
2022-08-21T09:57:14.816Z,21.34
2022-08-21T09:59:42.639Z,21.19
2022-08-21T10:02:30.579Z,21.57
2022-08-21T10:05:17.725Z,22.12
2022-08-21T10:07:44.514Z,22.08
2022-08-21T10:10:32.547Z,22.14
2022-08-21T10:13:34.773Z,21.94
2022-08-21T10:16:15.912Z,22.60
2022-08-21T10:19:05.106Z,23.47
2022-08-21T10:21:40.177Z,23.97
2022-08-21T10:24:45.249Z,24.15
2022-08-21T10:27:27.582Z,23.68
2022-08-21T10:30:08.525Z,24.50
2022-08-21T10:32:53.318Z,24.61
2022-08-21T10:35:22.904Z,24.52
2022-08-21T10:38:04.333Z,24.68
2022-08-21T10:40:36.288Z,24.82
2022-08-21T10:43:05.861Z,24.85
2022-08-21T10:46:00.438Z,24.16
2022-08-21T10:48:39.645Z,24.45
2022-08-21T10:51:28.892Z,24.07
2022-08-21T10:54:35.921Z,24.24
2022-08-21T10:57:35.861Z,24.28
2022-08-21T11:00:12.369Z,24.32
2022-08-21T11:02:44.635Z,24.21
2022-08-21T11:05:28.927Z,24.50
2022-08-21T11:08:05.078Z,24.53
2022-08-21T11:11:11.081Z,23.95
2022-08-21T11:13:55.050Z,24.82
2022-08-21T11:16:46.862Z,25.46
2022-08-21T11:19:29.245Z,24.65
2022-08-21T11:22:27.739Z,25.46
2022-08-21T11:24:54.300Z,25.61
2022-08-21T11:27:39.215Z,25.11
2022-08-21T11:30:07.685Z,25.01
2022-08-21T11:33:24.876Z,25.38
2022-08-21T11:35:54.913Z,25.48
2022-08-21T11:38:29.328Z,25.34
2022-08-21T11:41:22.964Z,25.79
2022-08-21T11:44:02.771Z,25.29
2022-08-21T11:46:34.022Z,25.42
2022-08-21T11:49:18.967Z,24.80
2022-08-21T11:52:12.677Z,25.28
2022-08-21T11:54:55.250Z,25.58
2022-08-21T11:57:27.748Z,25.98
2022-08-21T11:59:58.394Z,25.95
2022-08-21T12:02:34.751Z,25.67
2022-08-21T12:05:09.380Z,25.85
2022-08-21T12:07:42.390Z,26.01
2022-08-21T12:10:22.095Z,26.09
2022-08-21T12:12:49.602Z,26.28
2022-08-21T12:15:22.314Z,25.68
2022-08-21T12:18:21.549Z,26.01
2022-08-21T12:21:06.328Z,26.44
2022-08-21T12:23:48.253Z,26.34
2022-08-21T12:26:35.114Z,26.23
2022-08-21T12:29:30.530Z,25.95
2022-08-21T12:32:21.362Z,26.22
2022-08-21T12:34:53.786Z,26.14
2022-08-21T12:37:36.290Z,25.50
2022-08-21T12:40:11.550Z,25.76
2022-08-21T12:42:43.347Z,25.82
2022-08-21T12:45:18.659Z,25.80
2022-08-21T12:48:09.910Z,25.94
2022-08-21T12:50:38.432Z,26.17
2022-08-21T12:53:36.551Z,26.41
2022-08-21T12:56:10.056Z,26.37
2022-08-21T12:58:37.131Z,26.54
2022-08-21T13:01:05.233Z,26.86
2022-08-21T13:03:36.374Z,26.93
2022-08-21T13:06:04.979Z,26.78
2022-08-21T13:08:40.082Z,26.69
2022-08-21T13:11:13.690Z,26.90
2022-08-21T13:13:44.647Z,27.00
2022-08-21T13:16:23.434Z,26.64
2022-08-21T13:19:04.094Z,26.85
2022-08-21T13:21:34.783Z,26.93
2022-08-21T13:24:39.172Z,27.39
2022-08-21T13:27:04.653Z,27.54
2022-08-21T13:29:35.984Z,27.19
2022-08-21T13:32:07.976Z,27.15
2022-08-21T13:34:37.281Z,27.04
2022-08-21T13:37:09.681Z,27.12
2022-08-21T13:39:37.369Z,27.06
2022-08-21T13:42:11.986Z,27.17
2022-08-21T13:44:44.826Z,27.41
2022-08-21T13:47:15.900Z,27.32
2022-08-21T13:49:44.673Z,27.09
2022-08-21T13:52:22.023Z,27.23
2022-08-21T13:55:12.700Z,27.54
2022-08-21T13:57:40.408Z,27.18
2022-08-21T14:00:16.155Z,27.44
2022-08-21T14:02:47.319Z,26.98
2022-08-21T14:05:26.477Z,26.74
2022-08-21T14:08:03.191Z,27.00
2022-08-21T14:10:31.461Z,26.76
2022-08-21T14:13:07.757Z,26.79
2022-08-21T14:15:36.436Z,27.06
2022-08-21T14:18:18.826Z,26.88
2022-08-21T14:20:46.882Z,27.25
2022-08-21T14:23:25.182Z,26.99
2022-08-21T14:25:52.014Z,27.03
2022-08-21T14:28:42.617Z,27.08
2022-08-21T14:31:20.770Z,27.08
2022-08-21T14:33:48.074Z,26.86
2022-08-21T14:36:14.684Z,26.18
2022-08-21T14:38:41.839Z,26.81
2022-08-21T14:41:18.673Z,27.03
2022-08-21T14:43:59.775Z,27.06
2022-08-21T14:46:36.320Z,26.85
2022-08-21T14:49:07.477Z,27.13
2022-08-21T14:51:34.417Z,27.19
2022-08-21T14:54:01.155Z,27.21
2022-08-21T14:56:27.955Z,27.11
2022-08-21T14:58:57.108Z,27.31
2022-08-21T15:01:24.085Z,26.92
2022-08-21T15:03:50.850Z,26.75
2022-08-21T15:06:18.705Z,26.64
2022-08-21T15:08:45.369Z,26.85
2022-08-21T15:11:41.965Z,26.96
2022-08-21T15:14:11.766Z,26.89
2022-08-21T15:16:38.538Z,26.94
2022-08-21T15:19:05.186Z,26.72
2022-08-21T15:21:31.765Z,26.52
2022-08-21T15:23:58.517Z,26.48
2022-08-21T15:26:26.995Z,26.62
2022-08-21T15:28:53.697Z,26.89
2022-08-21T15:31:20.301Z,26.50
2022-08-21T15:33:46.930Z,26.54
2022-08-21T15:36:13.836Z,26.63
2022-08-21T15:38:40.460Z,26.61
2022-08-21T15:41:08.105Z,26.55
2022-08-21T15:43:52.299Z,26.53
2022-08-21T15:46:20.870Z,26.53
2022-08-21T15:48:48.417Z,26.85
2022-08-21T15:51:16.871Z,26.70
2022-08-21T15:53:44.120Z,26.47
2022-08-21T15:56:15.826Z,26.54
2022-08-21T15:58:42.535Z,26.47
2022-08-21T16:01:09.160Z,26.39
2022-08-21T16:03:35.845Z,26.59
2022-08-21T16:06:02.436Z,26.63
2022-08-21T16:08:29.075Z,26.59
2022-08-21T16:10:55.878Z,26.63
2022-08-21T16:13:35.311Z,26.54
2022-08-21T16:16:02.355Z,26.27
2022-08-21T16:18:30.111Z,26.36
2022-08-21T16:20:56.768Z,26.36
2022-08-21T16:23:24.538Z,26.37
2022-08-21T16:25:51.378Z,26.32
2022-08-21T16:28:21.245Z,26.41
2022-08-21T16:30:50.642Z,26.34
2022-08-21T16:33:42.639Z,26.20
2022-08-21T16:36:12.651Z,26.37
2022-08-21T16:38:41.948Z,26.18
2022-08-21T16:41:12.009Z,26.19
2022-08-21T16:43:41.801Z,26.21
2022-08-21T16:46:10.690Z,26.05
2022-08-21T16:48:37.344Z,25.94
2022-08-21T16:51:05.047Z,25.82
2022-08-21T16:53:31.697Z,25.84
2022-08-21T16:55:58.647Z,25.74
2022-08-21T16:58:32.670Z,25.73
2022-08-21T17:01:01.523Z,25.63
2022-08-21T17:03:48.720Z,25.39
2022-08-21T17:06:16.565Z,25.35
2022-08-21T17:08:43.598Z,25.26
2022-08-21T17:11:36.751Z,25.11
2022-08-21T17:14:08.210Z,25.07
2022-08-21T17:16:35.446Z,24.97
2022-08-21T17:19:02.029Z,24.85
2022-08-21T17:21:28.637Z,24.75
2022-08-21T17:23:55.358Z,24.60
2022-08-21T17:26:22.034Z,24.49
2022-08-21T17:28:51.867Z,24.38
2022-08-21T17:31:20.876Z,24.16
2022-08-21T17:33:51.118Z,24.18
2022-08-21T17:36:19.219Z,24.14
2022-08-21T17:38:46.895Z,24.04
2022-08-21T17:41:14.339Z,23.96
2022-08-21T17:43:41.211Z,23.83
2022-08-21T17:46:10.194Z,23.66
2022-08-21T17:48:36.792Z,23.51
2022-08-21T17:51:03.946Z,23.44
2022-08-21T17:53:30.652Z,23.27
2022-08-21T17:55:57.384Z,23.23
2022-08-21T17:58:24.008Z,23.13
2022-08-21T18:00:50.936Z,23.01
2022-08-21T18:03:22.485Z,22.89
2022-08-21T18:05:51.751Z,22.81
2022-08-21T18:08:18.375Z,22.76
2022-08-21T18:10:47.907Z,22.66
2022-08-21T18:13:24.389Z,22.58
2022-08-21T18:15:52.828Z,22.49
2022-08-21T18:18:21.779Z,22.50
2022-08-21T18:20:49.319Z,22.26
2022-08-21T18:23:16.379Z,22.41
2022-08-21T18:25:48.787Z,22.53
2022-08-21T18:28:17.531Z,22.35
2022-08-21T18:30:44.669Z,22.20
2022-08-21T18:33:13.982Z,22.07
2022-08-21T18:35:42.263Z,21.83
2022-08-21T18:38:09.649Z,21.84
2022-08-21T18:40:40.568Z,21.81
2022-08-21T18:43:10.023Z,21.61
2022-08-21T18:45:42.710Z,21.66
2022-08-21T18:48:12.219Z,21.63
2022-08-21T18:50:41.743Z,21.43
2022-08-21T18:53:24.203Z,21.51
2022-08-21T18:56:04.901Z,21.51
2022-08-21T18:58:33.196Z,21.54
2022-08-21T19:01:00.027Z,21.47
2022-08-21T19:03:26.835Z,21.45
2022-08-21T19:05:54.235Z,21.43
2022-08-21T19:08:23.967Z,21.30
2022-08-21T19:10:55.537Z,21.33
2022-08-21T19:13:23.282Z,21.33
2022-08-21T19:15:53.189Z,21.24
2022-08-21T19:18:28.290Z,21.12
2022-08-21T19:26:35.668Z,20.62
2022-08-21T19:29:07.091Z,20.74
2022-08-21T19:31:41.602Z,20.60
2022-08-21T19:34:26.442Z,20.47
2022-08-21T19:36:53.520Z,20.56
2022-08-21T19:39:20.207Z,20.57
2022-08-21T19:41:51.320Z,20.46
2022-08-21T19:44:20.976Z,20.23
2022-08-21T19:46:49.958Z,20.40
2022-08-21T19:49:21.105Z,20.39
2022-08-21T19:51:49.411Z,20.53
2022-08-21T19:54:21.025Z,20.48
2022-08-21T19:56:49.509Z,20.39
2022-08-21T20:02:11.869Z,20.34
2022-08-21T20:04:38.812Z,20.20
2022-08-21T20:07:26.767Z,20.18
2022-08-21T20:09:54.393Z,20.12
2022-08-21T20:12:23.379Z,19.82
2022-08-21T20:14:51.019Z,19.86
2022-08-21T20:17:19.304Z,19.79
2022-08-21T20:19:51.302Z,19.97
2022-08-21T20:22:21.807Z,19.85
2022-08-21T20:24:50.836Z,19.89
2022-08-21T20:27:25.813Z,20.05
2022-08-21T20:29:52.933Z,19.98
2022-08-21T20:32:19.581Z,20.13
2022-08-21T20:34:52.126Z,19.98
2022-08-21T20:37:35.823Z,19.92
2022-08-21T20:40:11.958Z,19.87
2022-08-21T20:42:41.430Z,19.97
2022-08-21T20:45:12.357Z,19.90
2022-08-21T20:47:40.162Z,19.93
2022-08-21T20:50:14.165Z,20.01
2022-08-21T20:52:41.698Z,20.15
2022-08-21T20:55:15.364Z,19.90
2022-08-21T20:58:00.569Z,19.77
2022-08-21T21:00:32.789Z,19.88
2022-08-21T21:03:06.698Z,19.86
2022-08-21T21:05:48.410Z,19.84
2022-08-21T21:08:25.767Z,19.79
2022-08-21T21:11:00.068Z,19.81
2022-08-21T21:13:32.062Z,19.83
2022-08-21T21:16:05.890Z,19.83
2022-08-21T21:18:40.806Z,19.72
2022-08-21T21:21:34.921Z,19.69
2022-08-21T21:24:11.988Z,19.72
2022-08-21T21:26:46.187Z,19.58
2022-08-21T21:29:27.425Z,19.57
2022-08-21T21:31:57.809Z,19.59
2022-08-21T21:34:28.044Z,19.60
2022-08-21T21:37:17.329Z,19.52
2022-08-21T21:40:10.660Z,19.65
2022-08-21T21:43:03.517Z,19.19
2022-08-21T21:45:42.580Z,19.21
2022-08-21T21:48:35.252Z,19.24
2022-08-21T21:51:20.415Z,19.26
2022-08-21T21:54:36.921Z,19.15
2022-08-21T21:57:34.211Z,19.13
2022-08-21T22:00:19.431Z,19.12
2022-08-21T22:03:47.219Z,19.00
2022-08-21T22:06:27.218Z,19.01
2022-08-21T22:08:55.809Z,18.98
2022-08-21T22:11:37.636Z,19.01
2022-08-21T22:14:15.196Z,18.99
2022-08-21T22:16:46.226Z,18.93
2022-08-21T22:19:35.416Z,18.71
2022-08-21T22:22:07.554Z,18.84
2022-08-21T22:24:40.438Z,18.81
2022-08-21T22:27:12.688Z,18.79
2022-08-21T22:29:48.683Z,18.70
2022-08-21T22:32:22.323Z,18.70
2022-08-21T22:35:05.827Z,18.66
2022-08-21T22:37:42.943Z,18.63
2022-08-21T22:40:15.913Z,18.62
2022-08-21T22:42:42.974Z,18.52
2022-08-21T22:45:12.343Z,18.43
2022-08-21T22:47:43.418Z,18.43
2022-08-21T22:50:27.589Z,18.32
2022-08-21T22:52:58.796Z,18.27
2022-08-21T22:55:52.725Z,18.08
2022-08-21T22:58:24.043Z,18.09
2022-08-21T23:01:03.686Z,18.15
2022-08-21T23:03:47.437Z,18.16
2022-08-21T23:06:29.927Z,18.17
2022-08-21T23:08:58.162Z,18.06
2022-08-21T23:11:42.983Z,18.02
2022-08-21T23:14:14.359Z,18.09
2022-08-21T23:16:47.423Z,18.06
2022-08-21T23:19:20.518Z,18.00
2022-08-21T23:22:13.552Z,17.86
2022-08-21T23:24:59.465Z,17.73
2022-08-21T23:27:53.939Z,17.52
2022-08-21T23:30:39.362Z,17.57
2022-08-21T23:33:17.064Z,17.60
2022-08-21T23:36:17.565Z,17.49
2022-08-21T23:39:10.161Z,17.33
2022-08-21T23:41:55.557Z,17.24
2022-08-21T23:44:54.958Z,17.28
2022-08-21T23:48:00.091Z,17.34
2022-08-21T23:50:36.691Z,17.28
2022-08-21T23:53:19.396Z,17.31
2022-08-21T23:56:07.704Z,17.30
2022-08-21T23:58:54.235Z,17.21
